createdAt,value
2022-08-07T00:02:39.939Z,15.50
2022-08-07T00:04:59.420Z,15.50
2022-08-07T00:07:27.524Z,15.50
2022-08-07T00:10:26.618Z,15.50
2022-08-07T00:12:57.908Z,15.50
2022-08-07T00:15:38.663Z,15.50
2022-08-07T00:18:24.129Z,15.30
2022-08-07T00:21:08.111Z,15.40
2022-08-07T00:23:53.118Z,15.40
2022-08-07T00:26:49.490Z,15.50
2022-08-07T00:29:07.550Z,15.60
2022-08-07T00:31:37.458Z,15.60
2022-08-07T00:34:08.808Z,15.50
2022-08-07T00:36:43.237Z,15.60
2022-08-07T00:39:16.945Z,15.60
2022-08-07T00:42:05.180Z,15.50
2022-08-07T00:44:34.547Z,15.40
2022-08-07T00:47:03.924Z,15.40
2022-08-07T00:50:21.170Z,15.40
2022-08-07T00:52:21.174Z,15.40
2022-08-07T00:54:53.715Z,15.30
2022-08-07T00:57:26.235Z,15.30
2022-08-07T00:59:54.163Z,15.40
2022-08-07T01:02:28.550Z,15.40
2022-08-07T01:04:58.540Z,15.40
2022-08-07T01:07:29.547Z,15.30
2022-08-07T01:10:06.873Z,15.30
2022-08-07T01:12:53.118Z,15.30
2022-08-07T01:15:35.684Z,15.30
2022-08-07T01:18:11.503Z,15.30
2022-08-07T01:21:22.466Z,15.30
2022-08-07T01:23:52.256Z,15.30
2022-08-07T01:26:21.559Z,15.30
2022-08-07T01:28:54.006Z,15.30
2022-08-07T01:31:22.977Z,15.30
2022-08-07T01:33:55.212Z,15.30
2022-08-07T01:36:33.522Z,15.30
2022-08-07T01:39:01.769Z,15.30
2022-08-07T01:41:38.481Z,15.30
2022-08-07T01:44:06.535Z,15.20
2022-08-07T01:46:34.748Z,15.10
2022-08-07T01:49:03.006Z,15.10
2022-08-07T01:52:01.843Z,15.20
2022-08-07T01:54:32.799Z,15.10
2022-08-07T01:57:24.723Z,15.20
2022-08-07T02:00:13.474Z,15.20
2022-08-07T02:03:18.581Z,15.30
2022-08-07T02:05:58.483Z,15.20
2022-08-07T02:08:30.626Z,15.20
2022-08-07T02:11:01.042Z,15.20
2022-08-07T02:13:56.684Z,15.20
2022-08-07T02:16:28.677Z,15.10
2022-08-07T02:20:04.155Z,15.10
2022-08-07T02:21:58.665Z,15.10
2022-08-07T02:24:29.959Z,15.10
2022-08-07T02:27:02.573Z,15.00
2022-08-07T02:29:36.903Z,14.90
2022-08-07T02:32:12.540Z,14.90
2022-08-07T02:34:48.682Z,14.90
2022-08-07T02:37:21.861Z,14.80
2022-08-07T02:40:02.053Z,14.80
2022-08-07T02:42:39.616Z,14.80
2022-08-07T02:45:59.234Z,14.80
2022-08-07T02:48:01.591Z,14.80
2022-08-07T02:50:31.029Z,14.80
2022-08-07T02:53:15.359Z,14.80
2022-08-07T02:56:03.082Z,14.80
2022-08-07T02:58:36.700Z,14.70
2022-08-07T03:01:18.436Z,14.70
2022-08-07T03:03:49.644Z,14.70
2022-08-07T03:06:32.166Z,14.80
2022-08-07T03:09:04.072Z,14.80
2022-08-07T03:11:38.356Z,14.70
2022-08-07T03:14:07.838Z,14.80
2022-08-07T03:16:36.308Z,14.90
2022-08-07T03:19:06.405Z,14.90
2022-08-07T03:21:35.842Z,14.90
2022-08-07T03:24:20.400Z,14.90
2022-08-07T03:32:23.003Z,14.80
2022-08-07T03:35:16.703Z,14.80
2022-08-07T03:37:53.550Z,14.80
2022-08-07T03:40:30.777Z,14.90
2022-08-07T03:43:13.656Z,14.80
2022-08-07T03:45:43.530Z,14.80
2022-08-07T03:48:15.779Z,14.70
2022-08-07T03:50:55.948Z,14.70
2022-08-07T03:53:50.048Z,14.70
2022-08-07T03:56:18.913Z,14.70
2022-08-07T03:59:12.835Z,14.60
2022-08-07T04:09:19.985Z,14.50
2022-08-07T04:12:21.312Z,14.50
2022-08-07T04:14:43.893Z,14.50
2022-08-07T04:17:20.223Z,14.50
2022-08-07T04:19:52.651Z,14.50
2022-08-07T04:22:27.469Z,14.60
2022-08-07T04:25:02.062Z,14.70
2022-08-07T04:27:36.265Z,14.80
2022-08-07T04:30:35.703Z,14.60
2022-08-07T04:33:00.737Z,14.60
2022-08-07T04:35:34.986Z,14.60
2022-08-07T04:38:11.424Z,14.60
2022-08-07T04:40:52.160Z,14.60
2022-08-07T04:44:10.003Z,14.80
2022-08-07T04:47:03.797Z,14.70
2022-08-07T04:50:04.387Z,14.70
2022-08-07T04:53:27.674Z,14.60
2022-08-07T04:58:15.111Z,14.50
2022-08-07T05:00:11.844Z,14.50
2022-08-07T05:02:33.899Z,14.60
2022-08-07T05:05:11.987Z,14.60
2022-08-07T05:08:06.229Z,14.70
2022-08-07T05:10:49.254Z,14.70
2022-08-07T05:14:53.264Z,14.70
2022-08-07T05:16:31.762Z,14.70
2022-08-07T05:19:10.389Z,14.80
2022-08-07T05:21:59.042Z,14.80
2022-08-07T05:24:30.436Z,14.80
2022-08-07T05:27:01.317Z,14.80
2022-08-07T05:29:39.005Z,14.90
2022-08-07T05:32:23.118Z,15.00
2022-08-07T05:34:52.767Z,15.00
2022-08-07T05:37:25.455Z,15.10
2022-08-07T05:40:13.723Z,15.20
2022-08-07T05:42:42.277Z,15.20
2022-08-07T05:45:46.357Z,15.20
2022-08-07T05:48:14.652Z,15.10
2022-08-07T05:50:43.312Z,15.10
2022-08-07T05:54:08.704Z,15.20
2022-08-07T05:56:03.551Z,15.20
2022-08-07T05:58:37.406Z,15.20
2022-08-07T06:01:10.757Z,15.20
2022-08-07T06:03:56.307Z,15.20
2022-08-07T06:06:29.398Z,15.20
2022-08-07T06:09:01.495Z,15.10
2022-08-07T06:11:34.467Z,15.10
2022-08-07T06:14:12.503Z,15.20
2022-08-07T06:16:50.597Z,15.20
2022-08-07T06:19:51.966Z,15.20
2022-08-07T06:22:20.682Z,15.20
2022-08-07T06:24:55.585Z,15.30
2022-08-07T06:27:59.754Z,15.40
2022-08-07T06:30:32.321Z,15.40
2022-08-07T06:33:03.540Z,15.30
2022-08-07T06:35:45.628Z,15.40
2022-08-07T06:38:19.953Z,15.40
2022-08-07T06:40:55.020Z,15.50
2022-08-07T06:43:26.753Z,15.60
2022-08-07T06:46:00.119Z,15.60
2022-08-07T06:48:28.357Z,15.60
2022-08-07T06:51:00.164Z,15.70
2022-08-07T06:55:27.529Z,15.70
2022-08-07T06:56:28.940Z,15.80
2022-08-07T07:00:14.349Z,15.80
2022-08-07T07:01:50.685Z,15.90
2022-08-07T07:04:32.489Z,15.90
2022-08-07T07:07:10.411Z,16.00
2022-08-07T07:09:50.809Z,16.00
2022-08-07T07:12:33.586Z,16.00
2022-08-07T07:15:32.486Z,16.10
2022-08-07T07:18:46.953Z,16.20
2022-08-07T07:21:20.039Z,16.30
2022-08-07T07:24:09.264Z,16.30
2022-08-07T07:26:39.661Z,16.40
2022-08-07T07:29:40.117Z,16.40
2022-08-07T07:32:07.193Z,16.40
2022-08-07T07:34:39.649Z,16.50
2022-08-07T07:37:21.522Z,16.50
2022-08-07T07:40:03.463Z,16.50
2022-08-07T07:42:39.788Z,16.50
2022-08-07T07:45:10.641Z,16.50
2022-08-07T07:47:52.801Z,16.60
2022-08-07T07:50:34.146Z,16.70
2022-08-07T07:53:20.168Z,16.70
2022-08-07T07:56:00.661Z,16.60
2022-08-07T07:58:40.173Z,16.60
2022-08-07T08:02:03.990Z,16.60
2022-08-07T08:04:10.511Z,16.80
2022-08-07T08:06:48.159Z,16.90
2022-08-07T08:09:24.368Z,17.00
2022-08-07T08:12:02.245Z,17.00
2022-08-07T08:14:36.471Z,17.10
2022-08-07T08:17:55.534Z,17.20
2022-08-07T08:20:17.859Z,17.10
2022-08-07T08:22:55.854Z,17.10
2022-08-07T08:25:41.933Z,17.20
2022-08-07T08:28:24.055Z,17.30
2022-08-07T08:31:14.776Z,17.40
2022-08-07T08:33:49.596Z,17.50
2022-08-07T08:36:30.609Z,17.60
2022-08-07T08:39:01.764Z,17.50
2022-08-07T08:41:58.750Z,17.60
2022-08-07T08:44:45.852Z,17.60
2022-08-07T08:47:29.433Z,17.70
2022-08-07T08:50:28.375Z,17.80
2022-08-07T08:53:32.809Z,17.80
2022-08-07T08:56:17.362Z,17.90
2022-08-07T08:59:12.863Z,18.00
2022-08-07T09:02:04.302Z,18.10
2022-08-07T09:05:04.928Z,18.20
2022-08-07T09:08:02.305Z,18.30
2022-08-07T09:10:44.229Z,18.30
2022-08-07T09:13:44.100Z,18.40
2022-08-07T09:16:34.325Z,18.50
2022-08-07T09:19:52.811Z,18.50
2022-08-07T09:24:31.059Z,18.60
2022-08-07T09:25:54.440Z,18.70
2022-08-07T09:30:05.875Z,18.80
2022-08-07T09:32:18.632Z,18.80
2022-08-07T09:36:04.506Z,18.90
2022-08-07T09:38:04.895Z,18.90
2022-08-07T09:40:50.197Z,19.00
2022-08-07T09:44:05.806Z,19.00
2022-08-07T09:47:51.148Z,19.10
2022-08-07T09:51:00.091Z,19.20
2022-08-07T09:53:41.330Z,19.30
2022-08-07T09:56:47.828Z,19.40
2022-08-07T10:00:01.506Z,19.40
2022-08-07T10:04:05.331Z,19.40
2022-08-07T10:06:27.485Z,19.40
2022-08-07T10:09:42.934Z,19.50
2022-08-07T10:12:39.829Z,19.40
2022-08-07T10:15:46.724Z,19.50
2022-08-07T10:18:26.546Z,19.40
2022-08-07T10:22:14.755Z,19.40
2022-08-07T10:24:33.353Z,19.50
2022-08-07T10:27:47.104Z,19.60
2022-08-07T10:30:43.336Z,19.80
2022-08-07T10:33:20.048Z,20.00
2022-08-07T10:36:45.758Z,20.10
2022-08-07T10:39:25.658Z,20.30
2022-08-07T10:43:01.921Z,20.40
2022-08-07T10:45:57.213Z,20.40
2022-08-07T10:48:36.262Z,20.20
2022-08-07T10:51:39.712Z,20.40
2022-08-07T10:54:21.929Z,20.70
2022-08-07T10:57:04.558Z,20.80
2022-08-07T10:59:47.451Z,20.70
2022-08-07T11:02:48.957Z,20.60
2022-08-07T11:05:50.751Z,20.30
2022-08-07T11:09:00.072Z,20.30
2022-08-07T11:12:02.852Z,20.20
2022-08-07T11:14:59.773Z,20.30
2022-08-07T11:17:46.407Z,20.50
2022-08-07T11:20:24.849Z,21.00
2022-08-07T11:23:20.702Z,21.20
2022-08-07T11:26:50.068Z,21.30
2022-08-07T11:29:42.728Z,21.20
2022-08-07T11:32:34.921Z,21.20
2022-08-07T11:35:16.620Z,21.60
2022-08-07T11:38:12.754Z,21.70
2022-08-07T11:41:06.290Z,21.50
2022-08-07T11:44:18.686Z,21.40
2022-08-07T11:47:04.837Z,21.30
2022-08-07T11:50:30.438Z,21.00
2022-08-07T11:53:19.080Z,20.90
2022-08-07T11:56:26.334Z,20.70
2022-08-07T12:00:10.736Z,20.60
2022-08-07T12:02:52.509Z,20.50
2022-08-07T12:05:49.158Z,20.40
2022-08-07T12:08:52.530Z,20.30
2022-08-07T12:11:32.609Z,20.30
2022-08-07T12:14:29.382Z,20.20
2022-08-07T12:17:05.280Z,20.20
2022-08-07T12:20:03.134Z,20.20
2022-08-07T12:23:21.455Z,20.10
2022-08-07T12:26:41.999Z,20.10
2022-08-07T12:29:38.301Z,20.10
2022-08-07T12:32:48.209Z,20.00
2022-08-07T12:35:19.197Z,20.00
2022-08-07T12:38:11.188Z,20.00
2022-08-07T12:40:47.406Z,20.00
2022-08-07T12:44:02.485Z,19.90
2022-08-07T12:46:35.440Z,20.00
2022-08-07T12:49:48.640Z,19.90
2022-08-07T12:52:19.202Z,20.00
2022-08-07T12:55:05.632Z,19.90
2022-08-07T12:58:01.238Z,19.90
2022-08-07T13:01:17.078Z,19.80
2022-08-07T13:04:05.218Z,19.80
2022-08-07T13:07:03.055Z,19.90
2022-08-07T13:10:28.730Z,19.80
2022-08-07T13:13:48.111Z,19.80
2022-08-07T13:16:24.021Z,19.80
2022-08-07T13:19:50.508Z,19.70
2022-08-07T13:22:39.454Z,19.70
2022-08-07T13:25:42.685Z,19.70
2022-08-07T13:28:48.902Z,19.60
2022-08-07T13:31:55.013Z,19.60
2022-08-07T13:34:51.107Z,19.60
2022-08-07T13:37:55.615Z,19.50
2022-08-07T13:40:42.672Z,19.50
2022-08-07T13:43:17.447Z,19.30
2022-08-07T13:46:20.690Z,19.40
2022-08-07T13:49:00.969Z,19.30
2022-08-07T13:52:04.943Z,19.30
2022-08-07T13:54:23.889Z,19.20
2022-08-07T13:56:59.613Z,19.20
2022-08-07T13:59:33.714Z,19.20
2022-08-07T14:02:14.153Z,19.10
2022-08-07T14:04:55.275Z,19.00
2022-08-07T14:07:31.213Z,18.90
2022-08-07T14:10:20.344Z,18.90
2022-08-07T14:13:02.691Z,19.00
2022-08-07T14:15:43.912Z,18.90
2022-08-07T14:18:32.645Z,19.00
2022-08-07T14:22:02.110Z,18.90
2022-08-07T14:24:33.151Z,18.90
2022-08-07T14:28:09.921Z,18.90
2022-08-07T14:30:07.653Z,18.90
2022-08-07T14:32:54.638Z,18.80
2022-08-07T14:35:43.223Z,18.80
2022-08-07T14:41:15.018Z,18.70
2022-08-07T14:43:58.386Z,18.70
2022-08-07T14:46:36.103Z,18.70
2022-08-07T14:49:55.889Z,18.70
2022-08-07T14:54:54.217Z,18.60
2022-08-07T14:57:54.677Z,18.50
2022-08-07T15:00:20.784Z,18.40
2022-08-07T15:03:19.268Z,18.40
2022-08-07T15:05:54.304Z,18.30
2022-08-07T15:08:47.608Z,18.30
2022-08-07T15:13:11.483Z,18.30
2022-08-07T15:14:25.389Z,18.30
2022-08-07T15:17:16.648Z,18.30
2022-08-07T15:20:33.185Z,18.20
2022-08-07T15:22:55.935Z,18.20
2022-08-07T15:25:36.835Z,18.20
2022-08-07T15:28:31.155Z,18.20
2022-08-07T15:31:05.627Z,18.20
2022-08-07T15:33:38.501Z,18.10
2022-08-07T15:36:12.014Z,18.10
2022-08-07T15:38:58.972Z,18.10
2022-08-07T15:42:45.919Z,18.10
2022-08-07T15:44:23.871Z,18.10
2022-08-07T15:47:08.922Z,18.00
2022-08-07T15:52:37.881Z,18.00
2022-08-07T15:55:18.128Z,17.90
2022-08-07T15:57:54.053Z,17.90
2022-08-07T16:00:38.521Z,17.90
2022-08-07T16:03:46.649Z,17.80
2022-08-07T16:06:14.021Z,17.70
2022-08-07T16:08:46.452Z,17.70
2022-08-07T16:12:03.350Z,17.60
2022-08-07T16:14:37.176Z,17.60
2022-08-07T16:18:02.030Z,17.60
2022-08-07T16:20:55.326Z,17.60
2022-08-07T16:24:34.851Z,17.50
2022-08-07T16:27:39.774Z,17.40
2022-08-07T16:30:30.743Z,17.40
2022-08-07T16:34:03.353Z,17.40
2022-08-07T16:36:19.855Z,17.40
2022-08-07T16:39:33.584Z,17.30
2022-08-07T16:42:43.677Z,17.30
2022-08-07T16:46:33.663Z,17.30
2022-08-07T16:50:13.791Z,17.20
2022-08-07T16:51:57.859Z,17.10
2022-08-07T16:55:08.269Z,17.10
2022-08-07T16:58:08.137Z,17.10
2022-08-07T17:00:51.162Z,17.10
2022-08-07T17:04:04.210Z,17.10
2022-08-07T17:07:03.426Z,17.00
2022-08-07T17:10:08.154Z,17.00
2022-08-07T17:13:05.327Z,16.90
2022-08-07T17:16:03.884Z,16.80
2022-08-07T17:19:02.315Z,16.70
2022-08-07T17:21:50.884Z,16.70
2022-08-07T17:24:29.446Z,16.70
2022-08-07T17:27:29.013Z,16.70
2022-08-07T17:30:13.939Z,16.70
2022-08-07T17:34:10.257Z,16.60
2022-08-07T17:36:13.588Z,16.60
2022-08-07T17:39:58.458Z,16.60
2022-08-07T17:42:58.479Z,16.60
2022-08-07T17:45:39.785Z,16.60
2022-08-07T17:48:31.809Z,16.60
2022-08-07T17:52:00.005Z,16.60
2022-08-07T17:54:29.679Z,16.60
2022-08-07T17:57:56.523Z,16.60
2022-08-07T18:00:32.989Z,16.60
2022-08-07T18:03:18.227Z,16.50
2022-08-07T18:06:02.292Z,16.30
2022-08-07T18:09:01.340Z,16.30
2022-08-07T18:12:17.897Z,16.20
2022-08-07T18:15:18.914Z,16.20
2022-08-07T18:18:44.762Z,16.00
2022-08-07T18:21:40.178Z,16.00
2022-08-07T18:24:12.135Z,15.90
2022-08-07T18:27:38.311Z,15.80
2022-08-07T18:30:31.353Z,15.90
2022-08-07T18:33:39.505Z,15.90
2022-08-07T18:37:09.666Z,15.70
2022-08-07T18:40:18.556Z,15.70
2022-08-07T18:43:11.411Z,15.60
2022-08-07T18:46:26.709Z,15.80
2022-08-07T18:50:30.663Z,15.90
2022-08-07T18:52:41.007Z,15.70
2022-08-07T18:55:55.395Z,15.70
2022-08-07T18:58:53.039Z,15.60
2022-08-07T19:02:18.366Z,15.40
2022-08-07T19:05:15.548Z,15.50
2022-08-07T19:08:07.171Z,15.50
2022-08-07T19:10:57.605Z,15.50
2022-08-07T19:13:55.743Z,15.40
2022-08-07T19:17:06.088Z,15.40
2022-08-07T19:19:58.671Z,15.50
2022-08-07T19:22:56.020Z,15.40
2022-08-07T19:26:23.883Z,15.40
2022-08-07T19:28:58.313Z,15.20
2022-08-07T19:31:42.805Z,15.20
2022-08-07T19:34:06.661Z,15.30
2022-08-07T19:36:42.598Z,15.20
2022-08-07T19:39:40.602Z,15.10
2022-08-07T19:42:24.644Z,15.10
2022-08-07T19:44:54.096Z,15.30
2022-08-07T19:47:36.416Z,15.30
2022-08-07T19:50:44.372Z,15.40
2022-08-07T19:52:58.397Z,15.40
2022-08-07T19:55:56.592Z,15.40
2022-08-07T19:58:28.149Z,15.40
2022-08-07T20:00:58.145Z,15.40
2022-08-07T20:03:33.467Z,15.30
2022-08-07T20:06:03.949Z,15.30
2022-08-07T20:08:48.917Z,15.30
2022-08-07T20:11:34.334Z,15.30
2022-08-07T20:14:20.888Z,15.30
2022-08-07T20:16:58.996Z,15.30
2022-08-07T20:19:47.930Z,15.30
2022-08-07T20:22:34.217Z,15.20
2022-08-07T20:25:12.896Z,15.10
2022-08-07T20:27:54.382Z,15.10
2022-08-07T20:30:36.283Z,15.10
2022-08-07T20:33:09.123Z,15.00
2022-08-07T20:36:03.203Z,15.20
2022-08-07T20:38:33.251Z,15.20
2022-08-07T20:41:05.474Z,15.20
2022-08-07T20:43:36.100Z,15.20
2022-08-07T20:46:26.922Z,15.30
2022-08-07T20:50:01.161Z,15.20
2022-08-07T20:51:50.869Z,15.10
2022-08-07T20:54:29.824Z,15.00
2022-08-07T20:57:08.299Z,14.90
2022-08-07T21:00:06.580Z,14.90
2022-08-07T21:02:30.684Z,15.00
2022-08-07T21:05:01.954Z,15.00
2022-08-07T21:07:38.776Z,15.00
2022-08-07T21:10:13.433Z,15.00
2022-08-07T21:12:47.190Z,15.00
2022-08-07T21:15:18.878Z,15.00
2022-08-07T21:18:03.737Z,14.80
2022-08-07T21:20:41.916Z,14.90
2022-08-07T21:23:36.559Z,14.90
2022-08-07T21:26:31.130Z,14.90
2022-08-07T21:29:17.946Z,14.90
2022-08-07T21:32:46.568Z,14.90
2022-08-07T21:35:34.799Z,14.90
2022-08-07T21:38:27.850Z,14.90
2022-08-07T21:41:22.566Z,14.90
2022-08-07T21:44:14.240Z,14.80
2022-08-07T21:47:37.872Z,15.00
2022-08-07T21:50:31.995Z,14.90
2022-08-07T21:53:12.206Z,14.80
2022-08-07T21:56:05.845Z,14.80
2022-08-07T22:00:05.099Z,14.80
2022-08-07T22:02:59.113Z,14.80
2022-08-07T22:05:45.964Z,14.80
2022-08-07T22:08:19.973Z,14.70
2022-08-07T22:10:59.194Z,14.70
2022-08-07T22:13:52.990Z,14.60
2022-08-07T22:16:42.878Z,14.60
2022-08-07T22:19:30.133Z,14.60
2022-08-07T22:22:20.968Z,14.60
2022-08-07T22:25:15.629Z,14.60
2022-08-07T22:28:37.161Z,14.70
2022-08-07T22:31:59.201Z,14.70
2022-08-07T22:34:35.710Z,14.70
2022-08-07T22:38:03.154Z,14.70
2022-08-07T22:40:35.858Z,14.60
2022-08-07T22:43:36.809Z,14.60
2022-08-07T22:46:46.735Z,14.70
2022-08-07T22:49:27.678Z,14.60
2022-08-07T22:52:45.919Z,14.60
2022-08-07T22:56:03.027Z,14.60
2022-08-07T22:59:09.047Z,14.60
2022-08-07T23:02:07.383Z,14.50
2022-08-07T23:06:07.470Z,14.50
2022-08-07T23:08:24.557Z,14.50
2022-08-07T23:11:44.274Z,14.50
2022-08-07T23:14:48.488Z,14.50
2022-08-07T23:17:36.633Z,14.50
2022-08-07T23:20:14.466Z,14.50
2022-08-07T23:23:03.793Z,14.50
2022-08-07T23:26:08.437Z,14.50
2022-08-07T23:29:43.609Z,14.50
2022-08-07T23:34:33.773Z,14.50
2022-08-07T23:37:18.598Z,14.50
2022-08-07T23:40:16.753Z,14.40
2022-08-07T23:43:37.651Z,14.50
2022-08-07T23:46:43.119Z,14.40
2022-08-07T23:49:49.878Z,14.40
2022-08-07T23:53:05.234Z,14.40
2022-08-07T23:55:53.135Z,14.50
2022-08-07T23:59:10.532Z,14.40
